createdAt,value
2019-04-23T00:00:37.568Z,17.47
2019-04-23T00:03:18.841Z,17.80
2019-04-23T00:05:41.444Z,16.40
2019-04-23T00:08:17.411Z,17.40
2019-04-23T00:10:45.944Z,16.27
2019-04-23T00:13:23.670Z,14.90
2019-04-23T00:15:58.651Z,15.93
2019-04-23T00:21:08.819Z,15.60
2019-04-23T00:23:47.887Z,15.47
2019-04-23T00:26:28.554Z,14.40
2019-04-23T00:29:00.528Z,14.33
2019-04-23T00:33:57.406Z,13.97
2019-04-23T00:36:44.799Z,17.00
2019-04-23T00:39:05.569Z,15.20
2019-04-23T00:41:39.141Z,15.57
2019-04-23T00:44:09.139Z,16.77
2019-04-23T00:46:45.196Z,12.30
2019-04-23T00:49:22.781Z,16.37
2019-04-23T00:52:07.459Z,12.40
2019-04-23T00:54:22.540Z,15.97
2019-04-23T00:56:52.654Z,13.07
2019-04-23T00:59:26.885Z,15.00
2019-04-23T01:02:00.910Z,14.23
2019-04-23T01:04:32.796Z,15.83
2019-04-23T01:07:05.254Z,15.17
2019-04-23T01:09:42.287Z,15.07
2019-04-23T01:12:19.116Z,17.27
2019-04-23T01:14:41.110Z,18.73
2019-04-23T01:17:29.936Z,13.90
2019-04-23T01:19:51.611Z,14.63
2019-04-23T01:22:04.175Z,13.97
2019-04-23T01:24:41.890Z,14.60
2019-04-23T01:32:44.103Z,18.87
2019-04-23T01:37:46.437Z,10.53
2019-04-23T01:40:27.220Z,16.20
2019-04-23T01:43:01.700Z,14.37
2019-04-23T01:45:43.774Z,13.07
2019-04-23T01:48:18.472Z,13.03
2019-04-23T01:53:23.336Z,11.77
2019-04-23T01:55:46.755Z,9.60
2019-04-23T02:00:52.892Z,13.17
2019-04-23T02:03:30.803Z,11.70
2019-04-23T02:06:03.297Z,13.97
2019-04-23T02:08:26.153Z,13.07
2019-04-23T02:11:06.802Z,11.30
2019-04-23T02:13:43.001Z,10.00
2019-04-23T02:16:04.374Z,13.63
2019-04-23T02:18:40.105Z,12.83
2019-04-23T02:21:12.094Z,13.03
2019-04-23T02:23:52.152Z,12.10
2019-04-23T02:26:39.910Z,13.23
2019-04-23T02:29:06.715Z,12.83
2019-04-23T02:34:25.388Z,17.10
2019-04-23T02:36:46.737Z,16.53
2019-04-23T02:39:03.415Z,13.93
2019-04-23T02:41:54.410Z,16.03
2019-04-23T02:47:03.497Z,16.33
2019-04-23T02:49:36.190Z,13.40
2019-04-23T02:56:59.166Z,11.30
2019-04-23T03:07:36.721Z,10.70
2019-04-23T03:09:58.800Z,15.33
2019-04-23T03:12:37.935Z,12.70
2019-04-23T03:15:11.055Z,13.53
2019-04-23T03:18:16.072Z,12.17
2019-04-23T03:20:45.514Z,12.20
2019-04-23T03:23:10.109Z,11.03
2019-04-23T03:25:45.462Z,12.80
2019-04-23T03:28:23.143Z,11.13
2019-04-23T03:38:43.128Z,15.03
2019-04-23T03:43:39.051Z,10.93
2019-04-23T03:46:16.089Z,11.83
2019-04-23T03:49:05.557Z,9.97
2019-04-23T03:51:09.603Z,15.03
2019-04-23T03:53:53.746Z,14.60
2019-04-23T03:56:22.896Z,10.93
2019-04-23T03:58:47.562Z,10.47
2019-04-23T04:01:29.854Z,10.30
2019-04-23T04:06:37.648Z,11.60
2019-04-23T04:09:08.098Z,12.97
2019-04-23T04:11:34.505Z,15.17
2019-04-23T04:14:25.276Z,12.23
2019-04-23T04:16:43.293Z,11.90
2019-04-23T04:19:16.749Z,17.83
2019-04-23T04:24:24.834Z,11.23
2019-04-23T04:29:28.672Z,11.07
2019-04-23T04:31:47.755Z,13.10
2019-04-23T04:37:26.914Z,12.83
2019-04-23T04:39:35.924Z,13.30
2019-04-23T04:42:12.064Z,12.93
2019-04-23T04:44:43.505Z,9.57
2019-04-23T04:49:51.339Z,10.30
2019-04-23T04:52:34.956Z,11.57
2019-04-23T04:54:35.075Z,11.43
2019-04-23T04:57:30.247Z,12.80
2019-04-23T05:02:53.601Z,11.97
2019-04-23T05:05:13.707Z,10.70
2019-04-23T05:12:54.986Z,15.33
2019-04-23T05:17:57.223Z,14.50
2019-04-23T05:20:19.899Z,15.03
2019-04-23T05:23:02.789Z,14.17
2019-04-23T05:25:20.303Z,16.77
2019-04-23T05:28:06.063Z,12.10
2019-04-23T05:30:33.151Z,16.13
2019-04-23T05:33:09.657Z,13.20
2019-04-23T05:40:52.009Z,15.17
2019-04-23T05:43:12.394Z,14.60
2019-04-23T05:45:41.377Z,14.10
2019-04-23T05:48:20.102Z,11.80
2019-04-23T05:53:18.671Z,12.50
2019-04-23T05:55:55.367Z,12.40
2019-04-23T05:58:28.705Z,14.30
2019-04-23T06:01:25.134Z,12.13
2019-04-23T06:03:41.913Z,18.43
2019-04-23T06:06:18.460Z,17.07
2019-04-23T06:08:51.428Z,16.90
2019-04-23T06:11:22.654Z,8.60
2019-04-23T06:14:02.077Z,14.17
2019-04-23T06:16:31.558Z,9.53
2019-04-23T06:19:02.665Z,11.07
2019-04-23T06:21:33.939Z,20.10
2019-04-23T06:24:15.032Z,15.77
2019-04-23T06:29:19.464Z,13.03
2019-04-23T06:34:16.715Z,13.67
2019-04-23T06:36:46.060Z,11.10
2019-04-23T06:39:15.826Z,15.57
2019-04-23T06:41:50.064Z,10.93
2019-04-23T06:44:25.613Z,9.77
2019-04-23T06:47:03.209Z,13.80
2019-04-23T06:52:15.055Z,13.63
2019-04-23T06:54:42.865Z,13.40
2019-04-23T06:57:14.147Z,12.70
2019-04-23T06:59:41.243Z,11.90
2019-04-23T07:04:56.781Z,12.40
2019-04-23T07:09:52.362Z,10.90
2019-04-23T07:12:41.367Z,10.63
2019-04-23T07:17:39.492Z,14.13
2019-04-23T07:20:04.894Z,12.07
2019-04-23T07:22:34.666Z,12.10
2019-04-23T07:27:41.093Z,11.10
2019-04-23T07:32:49.644Z,9.13
2019-04-23T07:35:15.740Z,14.93
2019-04-23T07:38:08.818Z,9.73
2019-04-23T07:43:08.080Z,8.80
2019-04-23T07:46:08.228Z,12.00
2019-04-23T07:48:32.106Z,12.07
2019-04-23T07:51:06.184Z,12.87
2019-04-23T07:53:39.882Z,10.70
2019-04-23T07:56:18.730Z,23.50
2019-04-23T07:58:40.021Z,13.80
2019-04-23T08:01:18.360Z,12.03
2019-04-23T08:06:26.132Z,14.90
2019-04-23T08:08:56.538Z,16.87
2019-04-23T08:14:03.376Z,22.77
2019-04-23T08:16:56.174Z,15.83
2019-04-23T08:19:07.751Z,10.57
2019-04-23T08:21:47.098Z,23.70
2019-04-23T08:24:16.992Z,10.17
2019-04-23T08:26:55.297Z,15.10
2019-04-23T08:29:28.032Z,13.15
2019-04-23T08:32:11.800Z,16.93
2019-04-23T08:39:46.490Z,25.47
2019-04-23T08:45:18.700Z,115.83
2019-04-23T08:47:59.087Z,52.73
2019-04-23T08:50:24.889Z,23.63
2019-04-23T08:52:58.573Z,22.30
2019-04-23T08:55:34.972Z,17.40
2019-04-23T08:58:04.675Z,25.82
2019-04-23T09:00:49.872Z,19.05
2019-04-23T09:03:20.012Z,17.05
2019-04-23T09:08:32.722Z,24.00
2019-04-23T09:10:56.733Z,20.05
2019-04-23T09:15:56.224Z,14.35
2019-04-23T09:18:29.090Z,14.75
2019-04-23T09:21:10.544Z,18.90
2019-04-23T09:23:54.439Z,18.30
2019-04-23T09:26:08.925Z,16.30
2019-04-23T09:31:45.614Z,26.40
2019-04-23T09:34:04.906Z,24.12
2019-04-23T09:36:51.056Z,21.42
2019-04-23T09:39:34.637Z,33.15
2019-04-23T09:42:16.146Z,16.52
2019-04-23T09:45:05.441Z,28.62
2019-04-23T09:47:51.927Z,21.50
2019-04-23T09:52:57.560Z,20.70
2019-04-23T10:00:40.620Z,18.87
2019-04-23T10:02:53.458Z,22.22
2019-04-23T10:05:26.734Z,23.12
2019-04-23T10:07:58.665Z,24.37
2019-04-23T10:10:23.494Z,21.33
2019-04-23T10:12:58.135Z,25.97
2019-04-23T10:15:36.636Z,28.97
2019-04-23T10:18:04.698Z,29.32
2019-04-23T10:20:36.331Z,23.55
2019-04-23T10:23:08.354Z,21.80
2019-04-23T10:25:40.369Z,30.90
2019-04-23T10:28:26.551Z,27.45
2019-04-23T10:30:58.691Z,25.92
2019-04-23T10:33:31.676Z,37.45
2019-04-23T10:36:08.618Z,31.50
2019-04-23T10:38:36.425Z,36.25
2019-04-23T10:41:09.791Z,13.48
2019-04-23T10:43:44.571Z,21.27
2019-04-23T10:46:36.588Z,35.90
2019-04-23T10:52:04.803Z,37.05
2019-04-23T10:57:03.974Z,19.73
2019-04-23T11:09:55.693Z,24.25
2019-04-23T11:15:35.660Z,33.33
2019-04-23T11:17:47.735Z,36.35
2019-04-23T11:20:35.404Z,33.45
2019-04-23T11:22:55.458Z,37.85
2019-04-23T11:28:18.611Z,26.35
2019-04-23T11:30:41.673Z,21.73
2019-04-23T11:33:19.993Z,23.30
2019-04-23T11:36:35.659Z,30.57
2019-04-23T11:38:49.059Z,22.35
2019-04-23T11:40:59.946Z,42.75
2019-04-23T11:43:32.421Z,26.80
2019-04-23T11:46:25.135Z,27.52
2019-04-23T11:48:52.350Z,18.95
2019-04-23T11:51:51.368Z,21.25
2019-04-23T11:53:54.601Z,25.65
2019-04-23T11:56:51.500Z,84.22
2019-04-23T11:58:52.490Z,20.62
2019-04-23T12:01:46.517Z,27.37
2019-04-23T12:04:31.032Z,23.52
2019-04-23T12:07:02.392Z,20.20
2019-04-23T12:10:04.820Z,25.80
2019-04-23T12:15:13.536Z,22.93
2019-04-23T12:17:53.889Z,14.78
2019-04-23T12:20:27.148Z,34.15
2019-04-23T12:23:04.314Z,34.58
2019-04-23T12:25:36.706Z,29.87
2019-04-23T12:27:55.279Z,19.62
2019-04-23T12:30:39.485Z,24.12
2019-04-23T12:33:12.966Z,29.15
2019-04-23T12:35:40.758Z,25.40
2019-04-23T12:40:46.563Z,46.65
2019-04-23T12:43:19.147Z,32.53
2019-04-23T12:45:47.284Z,45.73
2019-04-23T12:48:44.043Z,73.85
2019-04-23T12:51:17.138Z,35.25
2019-04-23T12:53:37.954Z,39.55
2019-04-23T12:56:11.010Z,39.35
2019-04-23T12:58:32.218Z,29.32
2019-04-23T13:01:16.349Z,29.45
2019-04-23T13:03:39.232Z,38.42
2019-04-23T13:06:17.045Z,28.35
2019-04-23T13:08:52.301Z,28.05
2019-04-23T13:11:33.357Z,18.23
2019-04-23T13:14:03.100Z,30.15
2019-04-23T13:16:37.726Z,32.27
2019-04-23T13:19:18.955Z,28.57
2019-04-23T13:24:26.028Z,24.92
2019-04-23T13:27:05.706Z,35.35
2019-04-23T13:29:41.549Z,33.27
2019-04-23T13:32:03.521Z,35.63
2019-04-23T13:37:16.605Z,35.43
2019-04-23T13:39:48.789Z,28.62
2019-04-23T13:42:35.643Z,33.78
2019-04-23T13:44:57.470Z,29.45
2019-04-23T13:50:32.790Z,34.33
2019-04-23T13:52:57.903Z,26.17
2019-04-23T14:00:24.734Z,42.33
2019-04-23T14:02:46.004Z,26.87
2019-04-23T14:08:00.851Z,23.27
2019-04-23T14:10:46.591Z,25.60
2019-04-23T14:15:55.756Z,28.83
2019-04-23T14:20:55.419Z,35.60
2019-04-23T14:23:41.547Z,38.65
2019-04-23T14:36:19.270Z,31.40
2019-04-23T14:38:49.792Z,41.92
2019-04-23T14:41:23.532Z,47.27
2019-04-23T14:51:39.705Z,28.47
2019-04-23T14:54:15.692Z,23.52
2019-04-23T14:56:46.289Z,23.80
2019-04-23T14:59:24.187Z,25.25
2019-04-23T15:01:48.943Z,29.27
2019-04-23T15:04:20.505Z,26.42
2019-04-23T15:09:53.233Z,21.93
2019-04-23T15:12:10.049Z,23.35
2019-04-23T15:14:47.942Z,24.82
2019-04-23T15:17:07.155Z,28.00
2019-04-23T15:19:47.866Z,22.33
2019-04-23T15:22:21.677Z,30.30
2019-04-23T15:24:50.246Z,18.33
2019-04-23T15:29:53.366Z,26.67
2019-04-23T15:38:16.186Z,23.27
2019-04-23T15:40:23.009Z,30.13
2019-04-23T15:42:56.167Z,20.45
2019-04-23T15:45:22.950Z,21.30
2019-04-23T15:48:00.494Z,23.30
2019-04-23T15:50:28.342Z,26.43
2019-04-23T15:55:38.650Z,23.10
2019-04-23T15:58:28.147Z,27.43
2019-04-23T16:00:38.435Z,21.77
2019-04-23T16:02:44.679Z,20.13
2019-04-23T16:05:18.456Z,26.00
2019-04-23T16:08:09.815Z,28.87
2019-04-23T16:10:54.617Z,25.63
2019-04-23T16:13:32.476Z,23.87
2019-04-23T16:16:03.951Z,20.90
2019-04-23T16:18:35.113Z,20.03
2019-04-23T16:21:10.647Z,28.37
2019-04-23T16:23:42.403Z,23.50
2019-04-23T16:26:14.553Z,20.90
2019-04-23T16:31:23.575Z,26.20
2019-04-23T16:34:14.209Z,30.60
2019-04-23T16:36:41.634Z,26.07
2019-04-23T16:39:10.269Z,25.37
2019-04-23T16:41:52.153Z,23.70
2019-04-23T16:44:24.113Z,16.27
2019-04-23T16:46:55.962Z,33.07
2019-04-23T16:52:01.798Z,31.20
2019-04-23T16:54:42.356Z,18.57
2019-04-23T17:00:08.163Z,23.30
2019-04-23T17:02:14.835Z,19.50
2019-04-23T17:04:47.744Z,19.23
2019-04-23T17:07:26.469Z,14.50
2019-04-23T17:10:00.607Z,16.43
2019-04-23T17:12:38.707Z,17.33
2019-04-23T17:15:03.261Z,16.80
2019-04-23T17:17:25.310Z,19.17
2019-04-23T17:20:08.609Z,16.60
2019-04-23T17:22:38.586Z,24.20
2019-04-23T17:27:48.566Z,21.60
2019-04-23T17:30:25.762Z,16.03
2019-04-23T17:33:12.154Z,22.37
2019-04-23T17:35:55.700Z,19.93
2019-04-23T17:38:27.925Z,27.53
2019-04-23T17:41:07.002Z,22.83
2019-04-23T17:43:44.388Z,27.10
2019-04-23T17:46:14.362Z,27.47
2019-04-23T17:48:43.886Z,17.40
2019-04-23T17:51:13.326Z,18.40
2019-04-23T17:53:56.169Z,24.83
2019-04-23T17:59:00.651Z,29.83
2019-04-23T18:09:34.346Z,24.67
2019-04-23T18:11:49.363Z,28.63
2019-04-23T18:14:13.235Z,22.83
2019-04-23T18:19:34.388Z,24.07
2019-04-23T18:22:18.779Z,15.53
2019-04-23T18:25:04.518Z,16.10
2019-04-23T18:27:38.402Z,20.90
2019-04-23T18:30:15.757Z,25.83
2019-04-23T18:33:16.738Z,24.07
2019-04-23T18:38:00.533Z,20.60
2019-04-23T18:40:28.560Z,19.60
2019-04-23T18:53:45.644Z,13.40
2019-04-23T18:56:13.401Z,15.77
2019-04-23T19:09:16.390Z,16.93
2019-04-23T19:12:19.634Z,20.33
2019-04-23T19:14:38.959Z,13.40
2019-04-23T19:19:44.116Z,15.33
2019-04-23T19:24:37.698Z,13.03
2019-04-23T19:27:18.892Z,15.30
2019-04-23T19:29:49.804Z,13.40
2019-04-23T19:32:14.378Z,12.37
2019-04-23T19:34:56.318Z,15.23
2019-04-23T19:37:43.447Z,14.37
2019-04-23T19:40:00.991Z,11.57
2019-04-23T19:42:44.045Z,11.17
2019-04-23T19:45:08.410Z,15.63
2019-04-23T19:50:15.254Z,12.13
2019-04-23T19:53:03.114Z,9.73
2019-04-23T19:55:35.205Z,11.83
2019-04-23T19:58:04.688Z,12.53
2019-04-23T20:01:01.975Z,11.57
2019-04-23T20:03:26.409Z,18.27
2019-04-23T20:05:56.629Z,12.63
2019-04-23T20:08:34.053Z,14.70
2019-04-23T20:11:01.291Z,14.67
2019-04-23T20:13:45.707Z,13.93
2019-04-23T20:16:22.483Z,12.33
2019-04-23T20:18:50.582Z,16.27
2019-04-23T20:21:08.931Z,17.00
2019-04-23T20:24:03.911Z,11.37
2019-04-23T20:32:57.574Z,14.60
2019-04-23T20:36:53.151Z,15.07
2019-04-23T20:52:13.744Z,9.77
2019-04-23T20:54:58.474Z,12.87
2019-04-23T21:00:20.755Z,12.17
2019-04-23T21:05:22.829Z,11.27
2019-04-23T21:13:09.235Z,12.43
2019-04-23T21:15:37.621Z,13.10
2019-04-23T21:18:18.921Z,14.73
2019-04-23T21:20:54.690Z,10.33
2019-04-23T21:23:14.160Z,13.87
2019-04-23T21:25:50.749Z,12.57
2019-04-23T21:36:22.153Z,12.80
2019-04-23T21:39:18.883Z,11.33
2019-04-23T21:41:45.308Z,10.83
2019-04-23T21:46:45.874Z,12.13
2019-04-23T21:49:41.338Z,12.03
2019-04-23T21:54:13.303Z,10.83
2019-04-23T21:59:23.105Z,12.83
2019-04-23T22:02:03.506Z,10.97
2019-04-23T22:04:35.727Z,11.73
2019-04-23T22:06:59.099Z,11.43
2019-04-23T22:09:46.067Z,13.00
2019-04-23T22:12:08.757Z,12.37
2019-04-23T22:14:47.487Z,11.70
2019-04-23T22:17:18.357Z,12.97
2019-04-23T22:19:55.674Z,11.00
2019-04-23T22:22:32.326Z,13.07
2019-04-23T22:24:57.204Z,10.77
2019-04-23T22:27:39.642Z,14.10
2019-04-23T22:30:25.891Z,12.13
2019-04-23T22:35:10.790Z,12.93
2019-04-23T22:37:52.048Z,11.93
2019-04-23T22:40:12.673Z,11.17
2019-04-23T22:45:43.093Z,12.20
2019-04-23T22:50:41.538Z,11.63
2019-04-23T22:53:08.685Z,15.47
2019-04-23T22:55:55.490Z,13.30
2019-04-23T22:58:16.180Z,12.50
2019-04-23T23:01:15.889Z,13.33
2019-04-23T23:03:42.238Z,13.83
2019-04-23T23:06:25.988Z,12.63
2019-04-23T23:09:07.876Z,14.30
2019-04-23T23:11:16.285Z,11.50
2019-04-23T23:14:10.201Z,14.87
2019-04-23T23:16:30.325Z,13.53
2019-04-23T23:19:07.467Z,12.40
2019-04-23T23:21:43.049Z,12.30
2019-04-23T23:24:06.287Z,12.90
2019-04-23T23:26:42.878Z,13.87
2019-04-23T23:29:06.364Z,16.47
2019-04-23T23:31:51.903Z,10.83
2019-04-23T23:34:15.372Z,12.23
2019-04-23T23:37:08.243Z,13.23
2019-04-23T23:39:28.812Z,16.10
2019-04-23T23:42:02.837Z,13.53
2019-04-23T23:44:58.305Z,14.07
2019-04-23T23:47:12.698Z,13.30
2019-04-23T23:49:48.516Z,11.73
2019-04-23T23:52:09.607Z,11.33
2019-04-23T23:54:45.179Z,14.53
2019-04-23T23:57:16.596Z,14.60
